sensor_id;sensor_type;location;lat;lon;timestamp;pressure;altitude;pressure_sealevel;temperature;humidity
40502;BME280;29631;49.168;9.848;2022-07-19T00:02:00;97077.69;;;26.26;63.03
40502;BME280;29631;49.168;9.848;2022-07-19T00:04:25;97093.63;;;26.27;63.09
40502;BME280;29631;49.168;9.848;2022-07-19T00:06:51;97084.28;;;26.20;62.52
40502;BME280;29631;49.168;9.848;2022-07-19T00:09:17;97061.47;;;26.07;62.74
40502;BME280;29631;49.168;9.848;2022-07-19T00:11:42;97060.84;;;25.97;62.76
40502;BME280;29631;49.168;9.848;2022-07-19T00:14:08;97042.47;;;25.94;62.87
40502;BME280;29631;49.168;9.848;2022-07-19T00:16:34;97056.00;;;25.94;62.84
40502;BME280;29631;49.168;9.848;2022-07-19T00:19:00;97080.78;;;26.01;62.80
40502;BME280;29631;49.168;9.848;2022-07-19T00:21:25;97061.09;;;25.77;62.62
40502;BME280;29631;49.168;9.848;2022-07-19T00:23:51;97069.66;;;25.84;63.19
40502;BME280;29631;49.168;9.848;2022-07-19T00:26:17;97065.84;;;25.85;62.59
40502;BME280;29631;49.168;9.848;2022-07-19T00:28:42;97079.31;;;25.90;63.29
40502;BME280;29631;49.168;9.848;2022-07-19T00:31:08;97074.53;;;25.82;63.10
40502;BME280;29631;49.168;9.848;2022-07-19T00:33:34;97066.28;;;25.73;63.15
40502;BME280;29631;49.168;9.848;2022-07-19T00:36:00;97069.53;;;25.70;63.29
40502;BME280;29631;49.168;9.848;2022-07-19T00:38:26;97069.28;;;25.67;62.99
40502;BME280;29631;49.168;9.848;2022-07-19T00:40:52;97086.56;;;25.71;62.89
40502;BME280;29631;49.168;9.848;2022-07-19T00:43:18;97081.72;;;25.68;62.91
40502;BME280;29631;49.168;9.848;2022-07-19T00:45:43;97074.75;;;25.62;63.39
40502;BME280;29631;49.168;9.848;2022-07-19T00:48:09;97072.06;;;25.62;62.63
40502;BME280;29631;49.168;9.848;2022-07-19T00:50:35;97086.03;;;25.69;63.38
40502;BME280;29631;49.168;9.848;2022-07-19T00:53:03;97077.47;;;25.62;63.43
40502;BME280;29631;49.168;9.848;2022-07-19T00:55:32;97097.94;;;25.68;63.60
40502;BME280;29631;49.168;9.848;2022-07-19T00:58:00;97092.53;;;25.68;63.27
40502;BME280;29631;49.168;9.848;2022-07-19T01:00:28;97088.50;;;25.65;63.31
40502;BME280;29631;49.168;9.848;2022-07-19T01:02:56;97082.88;;;25.62;63.57
40502;BME280;29631;49.168;9.848;2022-07-19T01:05:23;97062.75;;;25.50;62.98
40502;BME280;29631;49.168;9.848;2022-07-19T01:07:49;97078.69;;;25.51;63.36
40502;BME280;29631;49.168;9.848;2022-07-19T01:10:15;97060.47;;;25.38;63.41
40502;BME280;29631;49.168;9.848;2022-07-19T01:12:42;97077.94;;;25.46;63.43
40502;BME280;29631;49.168;9.848;2022-07-19T01:15:21;97095.97;;;25.50;63.61
40502;BME280;29631;49.168;9.848;2022-07-19T01:17:48;97080.41;;;25.42;63.56
40502;BME280;29631;49.168;9.848;2022-07-19T01:20:15;97090.13;;;25.43;63.62
40502;BME280;29631;49.168;9.848;2022-07-19T01:22:42;97078.31;;;25.39;63.29
40502;BME280;29631;49.168;9.848;2022-07-19T01:25:10;97075.63;;;25.34;63.37
40502;BME280;29631;49.168;9.848;2022-07-19T01:27:47;97089.66;;;25.36;63.63
40502;BME280;29631;49.168;9.848;2022-07-19T01:30:17;97098.84;;;25.35;63.85
40502;BME280;29631;49.168;9.848;2022-07-19T01:32:43;97078.41;;;25.29;63.60
40502;BME280;29631;49.168;9.848;2022-07-19T01:35:09;97071.97;;;25.25;63.83
40502;BME280;29631;49.168;9.848;2022-07-19T01:37:36;97089.72;;;25.31;64.02
40502;BME280;29631;49.168;9.848;2022-07-19T01:40:04;97088.41;;;25.29;63.53
40502;BME280;29631;49.168;9.848;2022-07-19T01:42:30;97079.53;;;25.23;63.90
40502;BME280;29631;49.168;9.848;2022-07-19T01:44:56;97074.16;;;25.23;63.82
40502;BME280;29631;49.168;9.848;2022-07-19T01:47:22;97079.53;;;25.23;64.19
40502;BME280;29631;49.168;9.848;2022-07-19T01:49:48;97064.25;;;25.14;63.77
40502;BME280;29631;49.168;9.848;2022-07-19T01:52:14;97072.66;;;25.12;63.84
40502;BME280;29631;49.168;9.848;2022-07-19T01:54:40;97082.31;;;25.18;64.21
40502;BME280;29631;49.168;9.848;2022-07-19T01:57:05;97061.34;;;25.05;64.00
40502;BME280;29631;49.168;9.848;2022-07-19T01:59:31;97041.00;;;24.89;63.98
40502;BME280;29631;49.168;9.848;2022-07-19T02:01:57;97024.06;;;24.84;64.49
40502;BME280;29631;49.168;9.848;2022-07-19T02:04:23;97066.75;;;25.05;64.46
40502;BME280;29631;49.168;9.848;2022-07-19T02:06:49;97061.34;;;25.05;64.37
40502;BME280;29631;49.168;9.848;2022-07-19T02:09:14;97065.94;;;25.05;64.56
40502;BME280;29631;49.168;9.848;2022-07-19T02:11:40;97061.91;;;25.02;64.13
40502;BME280;29631;49.168;9.848;2022-07-19T02:14:10;97066.81;;;25.00;64.72
40502;BME280;29631;49.168;9.848;2022-07-19T02:16:37;97056.94;;;24.86;64.77
40502;BME280;29631;49.168;9.848;2022-07-19T02:19:05;97053.78;;;24.79;65.01
40502;BME280;29631;49.168;9.848;2022-07-19T02:21:32;97047.06;;;24.77;65.20
40502;BME280;29631;49.168;9.848;2022-07-19T02:23:58;97058.38;;;24.79;64.91
40502;BME280;29631;49.168;9.848;2022-07-19T02:26:24;97033.50;;;24.58;65.14
40502;BME280;29631;49.168;9.848;2022-07-19T02:28:50;97051.97;;;24.70;64.88
40502;BME280;29631;49.168;9.848;2022-07-19T02:31:16;97052.56;;;24.67;64.90
40502;BME280;29631;49.168;9.848;2022-07-19T02:33:42;97052.56;;;24.67;64.54
40502;BME280;29631;49.168;9.848;2022-07-19T02:36:08;97053.69;;;24.61;65.28
40502;BME280;29631;49.168;9.848;2022-07-19T02:38:34;97041.84;;;24.57;64.88
40502;BME280;29631;49.168;9.848;2022-07-19T02:41:00;97049.66;;;24.58;65.21
40502;BME280;29631;49.168;9.848;2022-07-19T02:43:25;97054.47;;;24.61;64.97
40502;BME280;29631;49.168;9.848;2022-07-19T02:45:52;97008.09;;;24.26;65.43
40502;BME280;29631;49.168;9.848;2022-07-19T02:48:18;97044.06;;;24.50;65.00
40502;BME280;29631;49.168;9.848;2022-07-19T02:50:44;97057.00;;;24.53;65.18
40502;BME280;29631;49.168;9.848;2022-07-19T02:53:10;97052.16;;;24.50;65.21
40502;BME280;29631;49.168;9.848;2022-07-19T02:55:35;97048.38;;;24.51;65.57
40502;BME280;29631;49.168;9.848;2022-07-19T02:58:02;97059.63;;;24.58;65.12
40502;BME280;29631;49.168;9.848;2022-07-19T03:00:28;97049.00;;;24.43;65.58
40502;BME280;29631;49.168;9.848;2022-07-19T03:02:54;97064.03;;;24.49;65.28
40502;BME280;29631;49.168;9.848;2022-07-19T03:05:20;97069.16;;;24.50;65.22
40502;BME280;29631;49.168;9.848;2022-07-19T03:07:45;97060.88;;;24.42;65.57
40502;BME280;29631;49.168;9.848;2022-07-19T03:10:11;97043.34;;;24.34;66.00
40502;BME280;29631;49.168;9.848;2022-07-19T03:12:37;97045.53;;;24.32;65.89
40502;BME280;29631;49.168;9.848;2022-07-19T03:15:04;97049.56;;;24.35;65.91
40502;BME280;29631;49.168;9.848;2022-07-19T03:17:30;97066.75;;;24.44;65.79
40502;BME280;29631;49.168;9.848;2022-07-19T03:19:55;97040.16;;;24.32;66.10
40502;BME280;29631;49.168;9.848;2022-07-19T03:22:21;97048.97;;;24.38;65.81
40502;BME280;29631;49.168;9.848;2022-07-19T03:24:47;97048.44;;;24.41;65.63
40502;BME280;29631;49.168;9.848;2022-07-19T03:27:13;97036.66;;;24.27;65.98
40502;BME280;29631;49.168;9.848;2022-07-19T03:29:38;97052.75;;;24.37;66.09
40502;BME280;29631;49.168;9.848;2022-07-19T03:32:04;97032.31;;;24.31;65.88
40502;BME280;29631;49.168;9.848;2022-07-19T03:34:30;97011.47;;;24.08;66.28
40502;BME280;29631;49.168;9.848;2022-07-19T03:36:56;97058.44;;;24.35;66.46
40502;BME280;29631;49.168;9.848;2022-07-19T03:39:22;97046.34;;;24.33;66.63
40502;BME280;29631;49.168;9.848;2022-07-19T03:41:48;97038.59;;;24.21;66.53
40502;BME280;29631;49.168;9.848;2022-07-19T03:44:13;97055.50;;;24.32;66.98
40502;BME280;29631;49.168;9.848;2022-07-19T03:46:39;97053.63;;;24.27;66.84
40502;BME280;29631;49.168;9.848;2022-07-19T03:49:05;97059.81;;;24.33;66.64
40502;BME280;29631;49.168;9.848;2022-07-19T03:51:30;97022.25;;;24.08;67.11
40502;BME280;29631;49.168;9.848;2022-07-19T03:53:56;97058.72;;;24.34;66.55
40502;BME280;29631;49.168;9.848;2022-07-19T03:56:22;97059.28;;;24.31;66.57
40502;BME280;29631;49.168;9.848;2022-07-19T03:58:49;97048.59;;;24.21;66.86
40502;BME280;29631;49.168;9.848;2022-07-19T04:01:15;97061.97;;;24.31;67.06
40502;BME280;29631;49.168;9.848;2022-07-19T04:03:42;97059.03;;;24.27;66.86
40502;BME280;29631;49.168;9.848;2022-07-19T04:06:10;97055.00;;;24.25;66.67
40502;BME280;29631;49.168;9.848;2022-07-19T04:08:36;97050.75;;;24.19;66.53
40502;BME280;29631;49.168;9.848;2022-07-19T04:11:04;97063.34;;;24.28;67.03
40502;BME280;29631;49.168;9.848;2022-07-19T04:13:33;97049.38;;;24.21;67.07
40502;BME280;29631;49.168;9.848;2022-07-19T04:15:59;97073.28;;;24.33;66.56
40502;BME280;29631;49.168;9.848;2022-07-19T04:18:25;97062.00;;;24.26;66.75
40502;BME280;29631;49.168;9.848;2022-07-19T04:20:50;97077.88;;;24.32;66.93
40502;BME280;29631;49.168;9.848;2022-07-19T04:23:17;97053.44;;;24.19;67.23
40502;BME280;29631;49.168;9.848;2022-07-19T04:25:43;97061.47;;;24.24;66.86
40502;BME280;29631;49.168;9.848;2022-07-19T04:28:08;97049.94;;;24.18;66.93
40502;BME280;29631;49.168;9.848;2022-07-19T04:30:34;97067.66;;;24.29;67.59
40502;BME280;29631;49.168;9.848;2022-07-19T04:33:00;97050.75;;;24.19;67.44
40502;BME280;29631;49.168;9.848;2022-07-19T04:35:26;97067.94;;;24.28;67.10
40502;BME280;29631;49.168;9.848;2022-07-19T04:37:51;97049.72;;;24.15;67.54
40502;BME280;29631;49.168;9.848;2022-07-19T04:40:17;97055.63;;;24.17;66.98
40502;BME280;29631;49.168;9.848;2022-07-19T04:42:43;97074.13;;;24.28;67.19
40502;BME280;29631;49.168;9.848;2022-07-19T04:45:09;97058.03;;;24.18;67.37
40502;BME280;29631;49.168;9.848;2022-07-19T04:47:35;97035.78;;;24.03;67.51
40502;BME280;29631;49.168;9.848;2022-07-19T04:50:01;97073.63;;;24.26;67.44
40502;BME280;29631;49.168;9.848;2022-07-19T04:52:27;97076.03;;;24.28;67.22
40502;BME280;29631;49.168;9.848;2022-07-19T04:54:52;97066.31;;;24.27;68.13
40502;BME280;29631;49.168;9.848;2022-07-19T04:57:18;97074.91;;;24.34;67.86
40502;BME280;29631;49.168;9.848;2022-07-19T04:59:44;97080.25;;;24.39;67.63
40502;BME280;29631;49.168;9.848;2022-07-19T05:02:09;97074.56;;;24.40;68.86
40502;BME280;29631;49.168;9.848;2022-07-19T05:04:35;97070.56;;;24.38;68.35
40502;BME280;29631;49.168;9.848;2022-07-19T05:07:01;97047.47;;;24.27;68.36
40502;BME280;29631;49.168;9.848;2022-07-19T05:09:29;97058.41;;;24.40;68.56
40502;BME280;29631;49.168;9.848;2022-07-19T05:11:55;97074.78;;;24.54;68.95
40502;BME280;29631;49.168;9.848;2022-07-19T05:14:21;97072.09;;;24.54;68.71
40502;BME280;29631;49.168;9.848;2022-07-19T05:16:48;97066.16;;;24.52;68.78
40502;BME280;29631;49.168;9.848;2022-07-19T05:19:16;97071.25;;;24.58;68.73
40502;BME280;29631;49.168;9.848;2022-07-19T05:21:43;97073.06;;;24.68;68.24
40502;BME280;29631;49.168;9.848;2022-07-19T05:24:09;97080.50;;;24.76;68.02
40502;BME280;29631;49.168;9.848;2022-07-19T05:26:35;97085.88;;;24.81;68.46
40502;BME280;29631;49.168;9.848;2022-07-19T05:29:02;97070.25;;;24.78;68.93
40502;BME280;29631;49.168;9.848;2022-07-19T05:31:28;97077.75;;;24.86;68.52
40502;BME280;29631;49.168;9.848;2022-07-19T05:33:54;97065.88;;;24.87;68.56
40502;BME280;29631;49.168;9.848;2022-07-19T05:36:19;97058.84;;;24.86;68.37
40502;BME280;29631;49.168;9.848;2022-07-19T05:38:45;97063.88;;;24.97;68.90
40502;BME280;29631;49.168;9.848;2022-07-19T05:41:11;97075.63;;;25.11;68.90
40502;BME280;29631;49.168;9.848;2022-07-19T05:43:38;97077.47;;;25.15;68.77
40502;BME280;29631;49.168;9.848;2022-07-19T05:46:05;97082.19;;;25.28;68.92
40502;BME280;29631;49.168;9.848;2022-07-19T05:48:31;97068.97;;;25.27;68.72
40502;BME280;29631;49.168;9.848;2022-07-19T05:50:58;97078.00;;;25.41;68.54
40502;BME280;29631;49.168;9.848;2022-07-19T05:53:25;97063.41;;;25.42;68.60
40502;BME280;29631;49.168;9.848;2022-07-19T05:55:51;97048.59;;;25.39;69.04
40502;BME280;29631;49.168;9.848;2022-07-19T05:58:17;97072.63;;;25.59;68.72
40502;BME280;29631;49.168;9.848;2022-07-19T06:00:46;97067.44;;;25.63;68.99
40502;BME280;29631;49.168;9.848;2022-07-19T06:03:31;97070.91;;;25.68;68.98
40502;BME280;29631;49.168;9.848;2022-07-19T06:05:57;97071.63;;;25.78;68.62
40502;BME280;29631;49.168;9.848;2022-07-19T06:08:24;97079.31;;;25.90;68.32
40502;BME280;29631;49.168;9.848;2022-07-19T06:10:49;97081.94;;;25.95;68.43
40502;BME280;29631;49.168;9.848;2022-07-19T06:13:15;97072.13;;;25.99;68.55
40502;BME280;29631;49.168;9.848;2022-07-19T06:15:41;97067.78;;;26.03;68.44
40502;BME280;29631;49.168;9.848;2022-07-19T06:18:07;97073.84;;;26.13;69.22
40502;BME280;29631;49.168;9.848;2022-07-19T06:20:33;97059.50;;;26.13;68.29
40502;BME280;29631;49.168;9.848;2022-07-19T06:22:59;97077.91;;;26.29;68.84
40502;BME280;29631;49.168;9.848;2022-07-19T06:25:24;97070.53;;;26.35;68.42
40502;BME280;29631;49.168;9.848;2022-07-19T06:27:50;97069.31;;;26.45;68.77
40502;BME280;29631;49.168;9.848;2022-07-19T06:30:16;97068.66;;;26.53;68.83
40502;BME280;29631;49.168;9.848;2022-07-19T06:32:41;97064.75;;;26.59;68.21
40502;BME280;29631;49.168;9.848;2022-07-19T06:35:08;97064.09;;;26.67;68.50
40502;BME280;29631;49.168;9.848;2022-07-19T06:37:34;97059.69;;;26.71;68.07
40502;BME280;29631;49.168;9.848;2022-07-19T06:39:59;97069.94;;;26.88;68.42
40502;BME280;29631;49.168;9.848;2022-07-19T06:42:25;97077.19;;;26.92;68.24
40502;BME280;29631;49.168;9.848;2022-07-19T06:44:51;97048.50;;;26.91;68.43
40502;BME280;29631;49.168;9.848;2022-07-19T06:47:16;97046.53;;;26.97;68.16
40502;BME280;29631;49.168;9.848;2022-07-19T06:49:42;97065.41;;;27.15;68.06
40502;BME280;29631;49.168;9.848;2022-07-19T06:52:08;97036.41;;;27.02;68.37
40502;BME280;29631;49.168;9.848;2022-07-19T06:54:34;97053.19;;;27.31;68.24
40502;BME280;29631;49.168;9.848;2022-07-19T06:56:59;97071.25;;;27.49;68.63
40502;BME280;29631;49.168;9.848;2022-07-19T06:59:25;97051.00;;;27.46;67.98
40502;BME280;29631;49.168;9.848;2022-07-19T07:01:51;97050.41;;;27.63;67.94
40502;BME280;29631;49.168;9.848;2022-07-19T07:04:18;97052.41;;;27.71;67.45
40502;BME280;29631;49.168;9.848;2022-07-19T07:06:44;97059.72;;;27.84;67.18
40502;BME280;29631;49.168;9.848;2022-07-19T07:09:10;97046.38;;;27.87;67.03
40502;BME280;29631;49.168;9.848;2022-07-19T07:11:35;97071.44;;;28.06;66.96
40502;BME280;29631;49.168;9.848;2022-07-19T07:14:01;97051.81;;;28.09;66.95
40502;BME280;29631;49.168;9.848;2022-07-19T07:16:27;97056.94;;;28.24;66.88
40502;BME280;29631;49.168;9.848;2022-07-19T07:18:53;97028.00;;;28.19;66.36
40502;BME280;29631;49.168;9.848;2022-07-19T07:21:18;97042.22;;;28.38;66.40
40502;BME280;29631;49.168;9.848;2022-07-19T07:23:44;97042.00;;;28.48;66.23
40502;BME280;29631;49.168;9.848;2022-07-19T07:26:10;97061.59;;;28.67;66.76
40502;BME280;29631;49.168;9.848;2022-07-19T07:28:37;97059.47;;;28.77;66.28
40502;BME280;29631;49.168;9.848;2022-07-19T07:31:02;97052.97;;;28.87;66.06
40502;BME280;29631;49.168;9.848;2022-07-19T07:33:28;97038.16;;;28.93;65.63
40502;BME280;29631;49.168;9.848;2022-07-19T07:35:54;97062.53;;;29.15;65.17
40502;BME280;29631;49.168;9.848;2022-07-19T07:38:20;97041.31;;;29.17;65.62
40502;BME280;29631;49.168;9.848;2022-07-19T07:40:45;97056.94;;;29.42;65.08
40502;BME280;29631;49.168;9.848;2022-07-19T07:43:12;97051.72;;;29.53;65.35
40502;BME280;29631;49.168;9.848;2022-07-19T07:45:37;97036.69;;;29.56;65.29
40502;BME280;29631;49.168;9.848;2022-07-19T07:48:03;97033.38;;;29.67;65.34
40502;BME280;29631;49.168;9.848;2022-07-19T07:50:29;97041.72;;;29.88;64.96
40502;BME280;29631;49.168;9.848;2022-07-19T07:52:55;97021.38;;;29.85;64.41
40502;BME280;29631;49.168;9.848;2022-07-19T07:55:20;97054.28;;;30.14;64.62
40502;BME280;29631;49.168;9.848;2022-07-19T07:57:46;97032.97;;;30.16;64.44
40502;BME280;29631;49.168;9.848;2022-07-19T08:00:13;97039.41;;;30.28;64.22
40502;BME280;29631;49.168;9.848;2022-07-19T08:02:44;97037.81;;;30.44;63.35
40502;BME280;29631;49.168;9.848;2022-07-19T08:05:11;97031.88;;;30.51;63.86
40502;BME280;29631;49.168;9.848;2022-07-19T08:07:37;97038.91;;;30.69;63.21
40502;BME280;29631;49.168;9.848;2022-07-19T08:10:08;97024.66;;;30.72;63.31
40502;BME280;29631;49.168;9.848;2022-07-19T08:12:35;97032.59;;;30.93;62.92
40502;BME280;29631;49.168;9.848;2022-07-19T08:15:00;96987.28;;;30.81;62.27
40502;BME280;29631;49.168;9.848;2022-07-19T08:17:27;97023.13;;;31.16;62.68
40502;BME280;29631;49.168;9.848;2022-07-19T08:19:52;97017.16;;;31.23;62.29
40502;BME280;29631;49.168;9.848;2022-07-19T08:22:19;97026.53;;;31.42;62.51
40502;BME280;29631;49.168;9.848;2022-07-19T08:24:45;97027.63;;;31.50;62.69
40502;BME280;29631;49.168;9.848;2022-07-19T08:27:11;97021.84;;;31.60;62.17
40502;BME280;29631;49.168;9.848;2022-07-19T08:29:36;97023.06;;;31.70;62.14
40502;BME280;29631;49.168;9.848;2022-07-19T08:32:03;97016.28;;;31.76;61.84
40502;BME280;29631;49.168;9.848;2022-07-19T08:34:29;97015.09;;;31.86;61.09
40502;BME280;29631;49.168;9.848;2022-07-19T08:36:54;97002.84;;;31.92;61.15
40502;BME280;29631;49.168;9.848;2022-07-19T08:39:20;97019.16;;;32.09;60.84
40502;BME280;29631;49.168;9.848;2022-07-19T08:41:46;97019.41;;;32.16;60.84
40502;BME280;29631;49.168;9.848;2022-07-19T08:44:13;97017.41;;;32.25;60.71
40502;BME280;29631;49.168;9.848;2022-07-19T08:46:42;97014.72;;;32.37;59.98
40502;BME280;29631;49.168;9.848;2022-07-19T08:49:09;97022.84;;;32.45;60.22
40502;BME280;29631;49.168;9.848;2022-07-19T08:51:35;97018.47;;;32.52;60.13
40502;BME280;29631;49.168;9.848;2022-07-19T08:54:01;97019.66;;;32.63;59.87
40502;BME280;29631;49.168;9.848;2022-07-19T08:56:28;96995.94;;;32.55;59.68
40502;BME280;29631;49.168;9.848;2022-07-19T08:59:12;97022.22;;;32.80;59.73
40502;BME280;29631;49.168;9.848;2022-07-19T09:01:39;97020.91;;;32.86;59.51
40502;BME280;29631;49.168;9.848;2022-07-19T09:07:00;97016.34;;;33.02;58.29
40502;BME280;29631;49.168;9.848;2022-07-19T09:09:29;97024.38;;;33.07;58.20
40502;BME280;29631;49.168;9.848;2022-07-19T09:11:57;97021.41;;;33.12;58.42
40502;BME280;29631;49.168;9.848;2022-07-19T09:14:30;97023.72;;;33.22;58.02
40502;BME280;29631;49.168;9.848;2022-07-19T09:17:03;97030.81;;;33.35;57.80
40502;BME280;29631;49.168;9.848;2022-07-19T09:19:34;97019.88;;;33.35;57.57
40502;BME280;29631;49.168;9.848;2022-07-19T09:22:11;97025.69;;;33.45;57.66
40502;BME280;29631;49.168;9.848;2022-07-19T09:24:40;97010.53;;;33.48;57.84
40502;BME280;29631;49.168;9.848;2022-07-19T09:27:16;97015.13;;;33.56;57.39
40502;BME280;29631;49.168;9.848;2022-07-19T09:29:48;97000.16;;;33.53;57.13
40502;BME280;29631;49.168;9.848;2022-07-19T09:32:19;97018.75;;;33.72;56.87
40502;BME280;29631;49.168;9.848;2022-07-19T09:35:02;97007.38;;;33.70;56.94
40502;BME280;29631;49.168;9.848;2022-07-19T09:37:30;97016.94;;;33.88;57.22
40502;BME280;29631;49.168;9.848;2022-07-19T09:40:08;97021.69;;;33.91;56.63
40502;BME280;29631;49.168;9.848;2022-07-19T09:42:42;97026.25;;;33.98;56.64
40502;BME280;29631;49.168;9.848;2022-07-19T09:45:11;97015.31;;;34.10;56.82
40502;BME280;29631;49.168;9.848;2022-07-19T09:47:40;97013.69;;;34.09;56.28
40502;BME280;29631;49.168;9.848;2022-07-19T09:50:10;97010.03;;;34.17;56.53
40502;BME280;29631;49.168;9.848;2022-07-19T09:52:39;97030.78;;;34.30;56.44
40502;BME280;29631;49.168;9.848;2022-07-19T09:55:07;97019.81;;;34.30;56.09
40502;BME280;29631;49.168;9.848;2022-07-19T09:57:39;97012.28;;;34.39;55.93
40502;BME280;29631;49.168;9.848;2022-07-19T10:00:09;97022.09;;;34.40;55.72
40502;BME280;29631;49.168;9.848;2022-07-19T10:02:43;97012.00;;;34.44;55.21
40502;BME280;29631;49.168;9.848;2022-07-19T10:05:11;97019.31;;;34.52;55.24
40502;BME280;29631;49.168;9.848;2022-07-19T10:07:38;97012.44;;;34.58;55.70
40502;BME280;29631;49.168;9.848;2022-07-19T10:10:11;96996.38;;;34.57;55.71
40502;BME280;29631;49.168;9.848;2022-07-19T10:12:38;96994.97;;;34.63;55.18
40502;BME280;29631;49.168;9.848;2022-07-19T10:15:06;97005.50;;;34.76;55.34
40502;BME280;29631;49.168;9.848;2022-07-19T10:20:31;97012.97;;;34.91;55.61
40502;BME280;29631;49.168;9.848;2022-07-19T10:23:03;96994.03;;;34.86;55.80
40502;BME280;29631;49.168;9.848;2022-07-19T10:25:46;96988.81;;;34.96;55.15
40502;BME280;29631;49.168;9.848;2022-07-19T10:30:58;96993.47;;;35.08;55.47
40502;BME280;29631;49.168;9.848;2022-07-19T10:33:35;96981.34;;;35.09;55.58
40502;BME280;29631;49.168;9.848;2022-07-19T10:36:44;96991.09;;;35.22;55.79
40502;BME280;29631;49.168;9.848;2022-07-19T10:42:08;96990.13;;;35.30;55.35
40502;BME280;29631;49.168;9.848;2022-07-19T10:47:58;96989.94;;;35.38;55.48
40502;BME280;29631;49.168;9.848;2022-07-19T10:50:49;96972.16;;;35.48;55.30
40502;BME280;29631;49.168;9.848;2022-07-19T10:56:24;96973.13;;;35.55;54.86
40502;BME280;29631;49.168;9.848;2022-07-19T10:58:58;96966.19;;;35.61;55.20
40502;BME280;29631;49.168;9.848;2022-07-19T11:01:27;96965.59;;;35.67;55.33
40502;BME280;29631;49.168;9.848;2022-07-19T11:03:55;96962.09;;;35.70;55.02
40502;BME280;29631;49.168;9.848;2022-07-19T11:06:40;96964.16;;;35.73;55.02
40502;BME280;29631;49.168;9.848;2022-07-19T11:09:05;96961.50;;;35.77;54.85
40502;BME280;29631;49.168;9.848;2022-07-19T11:11:31;96950.22;;;35.82;54.59
40502;BME280;29631;49.168;9.848;2022-07-19T11:13:58;96947.47;;;35.82;54.34
40502;BME280;29631;49.168;9.848;2022-07-19T11:16:25;96955.09;;;35.88;54.50
40502;BME280;29631;49.168;9.848;2022-07-19T11:18:52;96951.34;;;35.96;54.70
40502;BME280;29631;49.168;9.848;2022-07-19T11:21:32;96939.47;;;35.92;54.94
40502;BME280;29631;49.168;9.848;2022-07-19T11:23:59;96957.88;;;36.07;54.64
40502;BME280;29631;49.168;9.848;2022-07-19T11:26:25;96946.97;;;36.11;54.27
40502;BME280;29631;49.168;9.848;2022-07-19T11:28:52;96928.53;;;36.11;54.59
40502;BME280;29631;49.168;9.848;2022-07-19T11:31:24;96925.91;;;36.18;53.93
40502;BME280;29631;49.168;9.848;2022-07-19T11:33:54;96914.22;;;36.21;54.29
40502;BME280;29631;49.168;9.848;2022-07-19T11:36:25;96922.94;;;36.26;54.56
40502;BME280;29631;49.168;9.848;2022-07-19T11:38:59;96918.25;;;36.27;54.42
40502;BME280;29631;49.168;9.848;2022-07-19T11:41:30;96919.84;;;36.28;54.43
40502;BME280;29631;49.168;9.848;2022-07-19T11:44:04;96913.19;;;36.29;53.73
40502;BME280;29631;49.168;9.848;2022-07-19T11:46:32;96923.25;;;36.40;53.42
40502;BME280;29631;49.168;9.848;2022-07-19T11:49:02;96912.16;;;36.37;53.15
40502;BME280;29631;49.168;9.848;2022-07-19T11:51:29;96905.81;;;36.33;53.68
40502;BME280;29631;49.168;9.848;2022-07-19T11:53:56;96896.47;;;36.37;53.46
40502;BME280;29631;49.168;9.848;2022-07-19T11:56:24;96921.88;;;36.50;53.74
40502;BME280;29631;49.168;9.848;2022-07-19T11:58:52;96897.84;;;36.47;53.63
40502;BME280;29631;49.168;9.848;2022-07-19T12:01:29;96908.56;;;36.52;53.26
40502;BME280;29631;49.168;9.848;2022-07-19T12:04:01;96901.63;;;36.58;53.89
40502;BME280;29631;49.168;9.848;2022-07-19T12:06:49;96890.75;;;36.65;53.13
40502;BME280;29631;49.168;9.848;2022-07-19T12:09:25;96888.53;;;36.74;53.02
40502;BME280;29631;49.168;9.848;2022-07-19T12:11:53;96880.72;;;36.76;53.42
40502;BME280;29631;49.168;9.848;2022-07-19T12:14:31;96878.81;;;36.80;53.49
40502;BME280;29631;49.168;9.848;2022-07-19T12:17:17;96876.06;;;36.80;53.17
40502;BME280;29631;49.168;9.848;2022-07-19T12:19:52;96874.63;;;36.86;53.24
40502;BME280;29631;49.168;9.848;2022-07-19T12:22:40;96873.06;;;36.85;52.54
40502;BME280;29631;49.168;9.848;2022-07-19T12:25:08;96873.19;;;36.92;53.16
40502;BME280;29631;49.168;9.848;2022-07-19T12:27:35;96874.75;;;36.93;53.28
40502;BME280;29631;49.168;9.848;2022-07-19T12:30:03;96865.31;;;36.94;52.95
40502;BME280;29631;49.168;9.848;2022-07-19T12:32:38;96851.16;;;36.92;52.61
40502;BME280;29631;49.168;9.848;2022-07-19T12:37:37;96865.06;;;37.02;52.12
40502;BME280;29631;49.168;9.848;2022-07-19T12:45:22;96848.81;;;36.94;52.37
40502;BME280;29631;49.168;9.848;2022-07-19T12:47:50;96835.38;;;36.89;52.55
40502;BME280;29631;49.168;9.848;2022-07-19T12:52:45;96859.34;;;37.10;52.86
40502;BME280;29631;49.168;9.848;2022-07-19T12:55:10;96860.16;;;37.14;52.58
40502;BME280;29631;49.168;9.848;2022-07-19T12:57:36;96859.44;;;37.17;51.66
40502;BME280;29631;49.168;9.848;2022-07-19T13:00:03;96850.69;;;37.12;51.98
40502;BME280;29631;49.168;9.848;2022-07-19T13:02:30;96842.44;;;37.12;52.21
40502;BME280;29631;49.168;9.848;2022-07-19T13:04:55;96842.94;;;37.17;52.45
40502;BME280;29631;49.168;9.848;2022-07-19T13:07:21;96839.00;;;37.18;52.02
40502;BME280;29631;49.168;9.848;2022-07-19T13:09:47;96841.84;;;37.25;52.13
40502;BME280;29631;49.168;9.848;2022-07-19T13:12:13;96826.41;;;37.17;52.04
40502;BME280;29631;49.168;9.848;2022-07-19T13:14:39;96846.94;;;37.23;51.91
40502;BME280;29631;49.168;9.848;2022-07-19T13:17:06;96841.44;;;37.23;51.44
40502;BME280;29631;49.168;9.848;2022-07-19T13:19:32;96835.19;;;37.26;51.86
40502;BME280;29631;49.168;9.848;2022-07-19T13:21:58;96837.25;;;37.29;51.47
40502;BME280;29631;49.168;9.848;2022-07-19T13:24:24;96826.50;;;37.24;51.74
40502;BME280;29631;49.168;9.848;2022-07-19T13:26:50;96836.78;;;37.27;51.35
40502;BME280;29631;49.168;9.848;2022-07-19T13:29:16;96814.69;;;37.24;51.97
40502;BME280;29631;49.168;9.848;2022-07-19T13:31:42;96817.97;;;37.29;51.88